Time;durP1;ratioP1;P1;durP2;ratioP2;P2;SDS_P1;SDS_P2;PMS_P1;PMS_P2;Temp;Humidity;BMP_temperature;BMP_pressure;BME280_temperature;BME280_humidity;BME280_pressure;Samples;Min_cycle;Max_cycle;Signal;HPM_P1;HPM_P2
2024/01/29 00:01:16;;;;;;;5.97;4.30;;;;;;;0.09;100.00;101242.28;5094547;28;20089;-69
2024/01/29 00:03:45;;;;;;;6.73;4.53;;;;;;;0.14;100.00;101236.91;5061043;28;20051;-69
2024/01/29 00:06:13;;;;;;;6.70;4.57;;;;;;;0.14;100.00;101249.97;5061211;28;20047;-70
2024/01/29 00:08:39;;;;;;;7.20;4.63;;;;;;;0.00;100.00;101264.34;5077071;28;20100;-70
2024/01/29 00:11:06;;;;;;;8.07;4.73;;;;;;;-0.01;100.00;101251.34;5004736;28;20408;-70
2024/01/29 00:13:32;;;;;;;7.60;4.50;;;;;;;-0.02;100.00;101255.69;5015275;28;20048;-69
2024/01/29 00:15:59;;;;;;;6.63;4.60;;;;;;;0.06;100.00;101249.38;5016219;28;20038;-70
2024/01/29 00:18:25;;;;;;;6.23;4.30;;;;;;;-0.08;100.00;101255.06;4982879;28;20073;-69
2024/01/29 00:20:51;;;;;;;7.03;4.30;;;;;;;-0.06;100.00;101251.50;5015126;28;20143;-68
2024/01/29 00:23:17;;;;;;;5.83;4.07;;;;;;;-0.07;100.00;101247.19;4998641;28;20037;-68
2024/01/29 00:25:43;;;;;;;5.67;3.80;;;;;;;-0.06;100.00;101251.50;5014649;28;20052;-69
2024/01/29 00:28:09;;;;;;;6.50;4.03;;;;;;;-0.08;100.00;101250.69;4998832;28;20064;-69
2024/01/29 00:30:35;;;;;;;7.97;4.83;;;;;;;-0.09;100.00;101241.16;4999338;28;20045;-70
2024/01/29 00:33:01;;;;;;;6.20;4.20;;;;;;;-0.16;100.00;101238.81;5015257;28;20158;-73
2024/01/29 00:35:28;;;;;;;5.83;4.53;;;;;;;-0.28;100.00;101245.28;4998771;28;20487;-69
2024/01/29 00:37:56;;;;;;;7.63;4.83;;;;;;;-0.34;100.00;101237.66;5016805;28;20045;-68
2024/01/29 00:40:24;;;;;;;7.77;4.97;;;;;;;-0.39;100.00;101243.94;4998628;28;20470;-69
2024/01/29 00:42:50;;;;;;;6.73;4.20;;;;;;;-0.42;100.00;101237.06;5031475;28;20045;-69
2024/01/29 00:45:17;;;;;;;8.43;4.93;;;;;;;-0.42;100.00;101238.81;5015055;28;20107;-70
2024/01/29 00:47:43;;;;;;;7.03;4.47;;;;;;;-0.48;100.00;101245.06;5031304;28;20052;-70
2024/01/29 00:50:11;;;;;;;7.10;4.30;;;;;;;-0.64;100.00;101238.66;5014893;28;20126;-70
2024/01/29 00:52:37;;;;;;;6.60;4.17;;;;;;;-0.69;100.00;101251.00;5030655;28;20053;-70
2024/01/29 00:55:03;;;;;;;8.87;4.87;;;;;;;-0.66;100.00;101252.66;5015234;28;20056;-71
2024/01/29 00:57:30;;;;;;;8.40;4.90;;;;;;;-0.77;100.00;101247.75;5031517;28;20091;-69
2024/01/29 00:59:56;;;;;;;7.07;4.47;;;;;;;-0.69;100.00;101253.59;4998159;28;20427;-70
2024/01/29 01:02:21;;;;;;;5.83;4.00;;;;;;;-0.76;100.00;101251.25;5014617;28;20147;-70
2024/01/29 01:04:47;;;;;;;7.57;4.67;;;;;;;-0.77;100.00;101242.53;4998216;28;20045;-69
2024/01/29 01:07:13;;;;;;;6.33;4.03;;;;;;;-0.81;100.00;101250.53;5014745;28;20095;-70
2024/01/29 01:09:40;;;;;;;5.97;4.37;;;;;;;-0.83;100.00;101247.13;5031596;28;20118;-70
2024/01/29 01:12:26;;;;;;;7.17;4.23;;;;;;;-0.77;100.00;101249.53;5032235;28;20103;-70
2024/01/29 01:14:51;;;;;;;6.90;4.50;;;;;;;-0.84;100.00;101245.41;4998015;28;20427;-70
2024/01/29 01:17:18;;;;;;;7.30;4.40;;;;;;;-0.87;100.00;101230.72;5031439;28;20136;-69
2024/01/29 01:19:44;;;;;;;7.43;4.33;;;;;;;-0.76;100.00;101241.66;4998174;28;20495;-68
2024/01/29 01:22:09;;;;;;;6.47;4.20;;;;;;;-0.70;100.00;101251.03;5015171;28;20037;-69
2024/01/29 01:24:36;;;;;;;6.27;4.00;;;;;;;-0.64;100.00;101254.31;5064439;28;20042;-69
2024/01/29 01:27:02;;;;;;;6.77;4.30;;;;;;;-0.65;100.00;101255.22;4998111;28;20060;-69
2024/01/29 01:29:28;;;;;;;6.03;4.07;;;;;;;-0.69;100.00;101258.00;5030465;28;20053;-69
2024/01/29 01:31:54;;;;;;;7.77;4.63;;;;;;;-0.75;100.00;101251.19;4998052;28;20103;-70
2024/01/29 01:34:20;;;;;;;6.40;4.27;;;;;;;-0.68;100.00;101252.72;5030693;28;20049;-72
2024/01/29 01:36:46;;;;;;;6.77;4.53;;;;;;;-0.74;100.00;101250.28;5031109;28;20042;-70
2024/01/29 01:39:12;;;;;;;6.40;4.00;;;;;;;-0.71;100.00;101250.19;4997799;28;20077;-70
2024/01/29 01:41:38;;;;;;;8.23;4.77;;;;;;;-0.83;100.00;101255.78;5030349;28;20050;-69
2024/01/29 01:44:04;;;;;;;6.70;4.27;;;;;;;-0.93;100.00;101259.59;4997499;28;20110;-72
2024/01/29 01:46:30;;;;;;;6.00;4.50;;;;;;;-0.98;100.00;101252.78;4997804;28;20037;-71
2024/01/29 01:48:56;;;;;;;6.27;4.40;;;;;;;-1.01;100.00;101245.94;5014115;28;20045;-69
2024/01/29 01:51:23;;;;;;;7.57;4.60;;;;;;;-1.05;100.00;101240.84;5031067;28;20056;-72
2024/01/29 01:53:51;;;;;;;6.87;4.60;;;;;;;-0.99;100.00;101248.50;5013700;28;20083;-71
2024/01/29 01:56:17;;;;;;;6.77;4.70;;;;;;;-1.07;100.00;101237.44;5030591;28;20037;-70
2024/01/29 01:58:43;;;;;;;8.37;4.83;;;;;;;-1.11;100.00;101247.13;4981417;28;20480;-72
2024/01/29 02:01:09;;;;;;;8.00;5.00;;;;;;;-1.08;100.00;101249.63;5030661;28;20038;-71
2024/01/29 02:03:35;;;;;;;6.87;4.43;;;;;;;-1.12;100.00;101245.38;5031581;28;20053;-73
2024/01/29 02:06:01;;;;;;;6.80;4.17;;;;;;;-1.14;100.00;101247.22;5014132;28;20034;-70
2024/01/29 02:08:27;;;;;;;6.53;4.10;;;;;;;-1.00;100.00;101252.84;5042682;28;20148;-70
2024/01/29 02:10:56;;;;;;;6.57;4.23;;;;;;;-0.94;100.00;101263.06;5050821;28;20041;-70
2024/01/29 02:13:22;;;;;;;6.23;3.90;;;;;;;-0.88;100.00;101257.72;5054211;28;20103;-69
2024/01/29 02:15:48;;;;;;;5.60;3.77;;;;;;;-0.84;100.00;101258.44;5054552;28;20379;-70
2024/01/29 02:18:15;;;;;;;6.33;4.00;;;;;;;-0.81;100.00;101248.78;5054141;28;20104;-69
2024/01/29 02:20:41;;;;;;;7.47;3.97;;;;;;;-0.87;100.00;101268.97;5055311;28;20045;-69
2024/01/29 02:23:09;;;;;;;6.70;4.50;;;;;;;-1.00;100.00;101263.25;5038784;28;20040;-70
2024/01/29 02:25:35;;;;;;;6.13;3.87;;;;;;;-1.00;100.00;101259.81;5020713;28;20446;-72
2024/01/29 02:28:01;;;;;;;6.93;4.20;;;;;;;-1.01;100.00;101250.28;5037426;28;20140;-69
2024/01/29 02:30:29;;;;;;;6.30;4.23;;;;;;;-1.08;100.00;101253.97;5020322;28;20135;-70
2024/01/29 02:32:57;;;;;;;6.77;4.50;;;;;;;-1.21;100.00;101247.41;5037127;28;20049;-70
2024/01/29 02:35:23;;;;;;;7.13;3.93;;;;;;;-1.19;100.00;101245.63;5004580;28;20487;-70
2024/01/29 02:37:49;;;;;;;7.50;4.30;;;;;;;-1.22;100.00;101249.19;5053538;28;20051;-69
2024/01/29 02:40:16;;;;;;;7.67;4.80;;;;;;;-1.24;100.00;101250.97;5053550;28;20084;-69
2024/01/29 02:42:42;;;;;;;5.90;4.20;;;;;;;-1.17;100.00;101243.84;5004108;28;20143;-68
2024/01/29 02:45:08;;;;;;;6.37;4.20;;;;;;;-1.07;100.00;101248.72;5020261;28;20087;-68
2024/01/29 02:47:34;;;;;;;7.53;4.10;;;;;;;-1.09;100.00;101250.50;5016586;28;20499;-68
2024/01/29 02:49:59;;;;;;;6.53;4.20;;;;;;;-1.04;100.00;101256.44;5017187;28;20037;-68
2024/01/29 02:52:25;;;;;;;5.67;4.20;;;;;;;-1.05;100.00;101259.97;5000214;28;20056;-68
2024/01/29 02:54:51;;;;;;;6.17;4.30;;;;;;;-1.03;100.00;101252.94;5032038;28;20053;-68
2024/01/29 02:57:23;;;;;;;6.13;4.27;;;;;;;-1.12;100.00;101241.94;5032218;28;20053;-69
2024/01/29 02:59:52;;;;;;;7.27;4.60;;;;;;;-1.02;100.00;101246.84;5015503;28;20037;-69
2024/01/29 03:02:19;;;;;;;8.20;4.47;;;;;;;-1.08;100.00;101247.03;4997303;28;20083;-70
2024/01/29 03:04:44;;;;;;;5.77;4.27;;;;;;;-1.06;100.00;101252.19;5031297;28;20052;-70
2024/01/29 03:07:11;;;;;;;5.70;3.80;;;;;;;-1.07;100.00;101250.47;5015569;28;20049;-70
2024/01/29 03:09:36;;;;;;;5.47;4.27;;;;;;;-1.11;100.00;101244.50;4998394;28;20072;-73
2024/01/29 03:12:03;;;;;;;6.03;3.90;;;;;;;-1.03;100.00;101242.50;5015154;28;20053;-70
2024/01/29 03:14:28;;;;;;;5.40;4.00;;;;;;;-1.03;100.00;101249.50;5016165;28;20052;-69
2024/01/29 03:16:55;;;;;;;7.07;4.50;;;;;;;-1.18;100.00;101247.31;5050027;28;20049;-71
2024/01/29 03:19:21;;;;;;;6.47;4.40;;;;;;;-1.17;100.00;101239.44;5053431;28;20068;-73
2024/01/29 03:21:47;;;;;;;6.57;4.50;;;;;;;-1.09;100.00;101244.47;5052343;28;20083;-69
2024/01/29 03:24:13;;;;;;;5.50;4.17;;;;;;;-1.12;100.00;101232.34;5036355;28;20147;-73
2024/01/29 03:26:39;;;;;;;5.80;4.10;;;;;;;-1.08;100.00;101236.59;5036447;28;20545;-69
2024/01/29 03:29:05;;;;;;;6.20;4.07;;;;;;;-1.08;100.00;101233.13;5035733;28;20098;-73
2024/01/29 03:31:31;;;;;;;7.07;4.40;;;;;;;-1.09;100.00;101240.09;5035855;28;20391;-71
2024/01/29 03:33:57;;;;;;;8.47;4.73;;;;;;;-1.05;100.00;101233.91;5053359;28;20045;-72
2024/01/29 03:36:22;;;;;;;6.73;4.67;;;;;;;-1.06;100.00;101229.56;5036834;28;20056;-71
2024/01/29 03:38:48;;;;;;;6.97;4.83;;;;;;;-1.07;100.00;101227.88;5003474;28;20061;-73
2024/01/29 03:41:14;;;;;;;8.00;4.87;;;;;;;-1.11;100.00;101233.22;5052445;28;20057;-73
2024/01/29 03:43:40;;;;;;;8.60;5.13;;;;;;;-1.15;100.00;101229.84;5051249;28;20440;-72
2024/01/29 03:46:05;;;;;;;7.70;4.80;;;;;;;-1.19;100.00;101232.59;5034861;28;20044;-72
2024/01/29 03:48:31;;;;;;;8.33;5.30;;;;;;;-1.31;100.00;101220.78;5018150;28;20064;-73
2024/01/29 03:50:57;;;;;;;9.00;5.60;;;;;;;-1.31;100.00;101228.59;5034447;28;20364;-72
2024/01/29 03:53:23;;;;;;;7.20;4.93;;;;;;;-1.36;100.00;101233.09;5049581;28;20136;-73
2024/01/29 03:55:52;;;;;;;9.50;5.10;;;;;;;-1.32;100.00;101229.50;4999251;28;20396;-76
2024/01/29 03:58:20;;;;;;;7.80;5.23;;;;;;;-1.42;100.00;101227.19;5002078;28;20048;-71
2024/01/29 04:00:46;;;;;;;7.20;4.97;;;;;;;-1.36;100.00;101230.50;5032050;28;20128;-72
2024/01/29 04:03:12;;;;;;;8.07;5.23;;;;;;;-1.37;100.00;101235.75;5032707;28;20445;-73
2024/01/29 04:05:37;;;;;;;11.07;5.83;;;;;;;-1.46;100.00;101242.06;5033060;28;20037;-73
2024/01/29 04:08:04;;;;;;;9.57;5.80;;;;;;;-1.48;100.00;101237.81;5033282;28;20056;-73
2024/01/29 04:10:31;;;;;;;7.63;4.93;;;;;;;-1.34;100.00;101235.66;5051154;28;20063;-72
2024/01/29 04:12:56;;;;;;;9.37;5.70;;;;;;;-1.45;100.00;101243.78;5034350;28;20056;-72
2024/01/29 04:15:22;;;;;;;10.57;5.87;;;;;;;-1.39;100.00;101251.44;5051818;28;20041;-74
2024/01/29 04:17:48;;;;;;;9.23;5.53;;;;;;;-1.35;100.00;101247.81;5035569;28;20407;-71
2024/01/29 04:20:14;;;;;;;10.50;5.83;;;;;;;-1.51;100.00;101243.97;5016782;28;20118;-72
2024/01/29 04:22:44;;;;;;;9.60;5.77;;;;;;;-1.54;100.00;101248.41;5023735;28;20045;-69
2024/01/29 04:25:10;;;;;;;9.37;5.87;;;;;;;-1.53;100.00;101240.53;5020671;28;20396;-72
2024/01/29 04:27:36;;;;;;;9.60;5.83;;;;;;;-1.50;100.00;101245.66;5053463;28;20075;-74
2024/01/29 04:30:02;;;;;;;9.30;5.70;;;;;;;-1.39;100.00;101254.03;5053157;28;20091;-75
2024/01/29 04:32:33;;;;;;;8.90;5.60;;;;;;;-1.34;100.00;101257.38;5052125;28;20051;-74
2024/01/29 04:35:03;;;;;;;9.85;5.90;;;;;;;-1.40;100.00;101251.47;5052186;28;20151;-75
2024/01/29 04:37:29;;;;;;;11.43;5.40;;;;;;;-1.44;100.00;101266.31;5053977;28;20397;-75
2024/01/29 04:39:55;;;;;;;10.40;5.87;;;;;;;-1.39;100.00;101259.25;5037245;28;20113;-74
2024/01/29 04:42:22;;;;;;;8.50;5.40;;;;;;;-1.42;100.00;101258.47;5037199;28;20070;-75
2024/01/29 04:44:47;;;;;;;9.87;5.90;;;;;;;-1.42;100.00;101259.34;5037074;28;20084;-74
2024/01/29 04:47:13;;;;;;;9.20;5.27;;;;;;;-1.39;100.00;101258.38;5070173;28;20045;-74
2024/01/29 04:49:39;;;;;;;9.07;5.40;;;;;;;-1.36;100.00;101263.50;5070887;28;20090;-75
2024/01/29 04:52:05;;;;;;;11.60;5.57;;;;;;;-1.37;100.00;101257.47;5037215;28;20372;-71
2024/01/29 04:54:31;;;;;;;8.13;4.73;;;;;;;-1.39;100.00;101264.47;5051783;28;20700;-72
2024/01/29 04:56:57;;;;;;;7.63;5.30;;;;;;;-1.32;100.00;101259.94;5032240;28;20059;-71
2024/01/29 04:59:23;;;;;;;7.53;5.20;;;;;;;-1.33;100.00;101252.97;5033647;28;20431;-71
2024/01/29 05:01:49;;;;;;;9.13;5.47;;;;;;;-1.39;100.00;101255.78;5032415;28;20087;-73
2024/01/29 05:04:15;;;;;;;7.17;5.00;;;;;;;-1.43;100.00;101252.38;5014743;28;20551;-72
2024/01/29 05:06:41;;;;;;;8.60;5.23;;;;;;;-1.45;100.00;101268.97;5047795;28;20156;-66
2024/01/29 05:09:09;;;;;;;8.90;5.10;;;;;;;-1.44;100.00;101253.31;5048112;28;20158;-72
2024/01/29 05:11:37;;;;;;;10.13;5.50;;;;;;;-1.42;100.00;101235.03;5033959;28;20052;-72
2024/01/29 05:14:03;;;;;;;8.00;5.40;;;;;;;-1.38;100.00;101250.50;5034154;28;20487;-71
2024/01/29 05:16:29;;;;;;;9.77;5.63;;;;;;;-1.39;100.00;101246.22;5017275;28;20052;-73
2024/01/29 05:18:55;;;;;;;8.77;5.30;;;;;;;-1.50;100.00;101250.00;5050114;28;20041;-72
2024/01/29 05:21:20;;;;;;;9.83;5.90;;;;;;;-1.56;100.00;101258.00;5033180;28;20117;-72
2024/01/29 05:23:46;;;;;;;9.93;5.67;;;;;;;-1.54;100.00;101251.00;5033246;28;20037;-71
2024/01/29 05:26:12;;;;;;;10.93;6.17;;;;;;;-1.60;100.00;101251.19;5050261;28;20032;-68
2024/01/29 05:28:38;;;;;;;8.33;5.33;;;;;;;-1.56;100.00;101251.03;5051857;28;20061;-73
2024/01/29 05:31:05;;;;;;;9.33;6.03;;;;;;;-1.42;100.00;101246.31;5030436;28;20079;-71
2024/01/29 05:33:30;;;;;;;8.70;5.40;;;;;;;-1.49;100.00;101239.53;4982044;28;20049;-71
2024/01/29 05:35:56;;;;;;;9.20;5.77;;;;;;;-1.43;100.00;101249.78;5031817;28;20049;-71
2024/01/29 05:38:22;;;;;;;11.37;5.87;;;;;;;-1.38;100.00;101258.34;5014955;28;20071;-71
2024/01/29 05:40:47;;;;;;;11.27;5.53;;;;;;;-1.42;100.00;101258.47;5035100;28;20208;-72
2024/01/29 05:43:13;;;;;;;10.63;6.50;;;;;;;-1.46;100.00;101249.88;5032580;28;20045;-71
2024/01/29 05:45:39;;;;;;;10.97;6.07;;;;;;;-1.40;100.00;101248.88;5033556;28;20091;-72
2024/01/29 05:48:07;;;;;;;9.83;5.40;;;;;;;-1.43;100.00;101243.75;5034636;28;20442;-71
2024/01/29 05:50:33;;;;;;;8.97;5.33;;;;;;;-1.52;100.00;101242.22;5019134;28;20325;-71
2024/01/29 05:52:58;;;;;;;12.40;5.83;;;;;;;-1.45;100.00;101237.72;5054364;28;20041;-71
2024/01/29 05:55:24;;;;;;;8.47;5.23;;;;;;;-1.40;100.00;101251.47;5021393;28;20041;-70
2024/01/29 05:58:32;;;;;;;8.90;5.37;;;;;;;-1.29;100.00;101239.00;5055203;28;20079;-73
2024/01/29 06:01:16;;;;;;;12.23;6.23;;;;;;;-1.42;100.00;101261.94;5038607;28;20147;-71
2024/01/29 06:03:42;;;;;;;9.97;5.93;;;;;;;-1.45;100.00;101263.75;5055214;28;20416;-74
2024/01/29 06:06:08;;;;;;;11.30;6.20;;;;;;;-1.46;100.00;101264.69;5055089;28;20045;-73
2024/01/29 06:08:33;;;;;;;11.00;5.63;;;;;;;-1.38;100.00;101257.50;5052510;28;20065;-71
2024/01/29 06:10:59;;;;;;;11.23;6.30;;;;;;;-1.38;100.00;101279.19;5034202;28;20127;-72
2024/01/29 06:13:26;;;;;;;9.67;5.53;;;;;;;-1.32;100.00;101270.34;5043744;28;20034;-71
2024/01/29 06:15:52;;;;;;;9.80;5.80;;;;;;;-1.42;100.00;101272.34;5045766;28;20095;-71
2024/01/29 06:18:18;;;;;;;11.93;6.20;;;;;;;-1.34;100.00;101278.22;5042382;28;20049;-71
2024/01/29 06:20:44;;;;;;;12.73;6.23;;;;;;;-1.29;100.00;101273.69;5043779;28;20426;-71
2024/01/29 06:23:09;;;;;;;9.87;5.70;;;;;;;-1.30;100.00;101277.22;5013490;28;20048;-71
2024/01/29 06:25:35;;;;;;;14.00;5.73;;;;;;;-1.26;100.00;101280.59;5043451;28;20083;-71
2024/01/29 06:28:01;;;;;;;11.37;6.50;;;;;;;-1.27;100.00;101266.69;5029373;28;20033;-71
2024/01/29 06:30:28;;;;;;;12.43;6.60;;;;;;;-1.21;100.00;101279.56;5034303;28;20037;-72
2024/01/29 06:32:54;;;;;;;9.83;6.33;;;;;;;-1.18;100.00;101287.28;5029001;28;20037;-73
2024/01/29 06:35:22;;;;;;;11.23;6.23;;;;;;;-1.23;100.00;101283.94;5011422;28;20129;-71
2024/01/29 06:37:47;;;;;;;12.63;6.37;;;;;;;-1.29;100.00;101296.31;5043707;28;20061;-70
2024/01/29 06:40:13;;;;;;;9.00;5.87;;;;;;;-1.30;100.00;101294.59;5046440;28;20069;-69
2024/01/29 06:42:39;;;;;;;9.33;5.70;;;;;;;-1.27;100.00;101282.34;5041710;28;20036;-68
2024/01/29 06:45:07;;;;;;;10.80;6.10;;;;;;;-1.15;100.00;101274.16;5017502;28;20106;-72
2024/01/29 06:47:33;;;;;;;10.80;5.83;;;;;;;-1.19;100.00;101288.19;5035561;28;20041;-71
2024/01/29 06:49:59;;;;;;;7.63;5.00;;;;;;;-1.13;100.00;101281.94;5044464;28;20063;-72
2024/01/29 06:52:25;;;;;;;8.90;5.40;;;;;;;-1.12;100.00;101274.06;5042927;28;20503;-69
2024/01/29 06:54:52;;;;;;;11.13;5.93;;;;;;;-1.14;100.00;101272.41;5043471;28;20041;-70
2024/01/29 06:57:18;;;;;;;9.47;5.53;;;;;;;-1.20;100.00;101277.81;5017892;28;20447;-69
2024/01/29 06:59:44;;;;;;;10.33;6.10;;;;;;;-1.21;100.00;101278.69;5025957;28;20127;-70
2024/01/29 07:02:10;;;;;;;9.20;5.80;;;;;;;-1.12;100.00;101263.63;5042608;28;20467;-72
2024/01/29 07:04:36;;;;;;;10.77;5.93;;;;;;;-1.14;100.00;101260.25;5043438;28;20073;-69
2024/01/29 07:07:02;;;;;;;10.37;5.57;;;;;;;-1.14;100.00;101260.25;5042628;28;20044;-69
2024/01/29 07:09:28;;;;;;;8.13;5.37;;;;;;;-1.26;100.00;101268.41;5042912;28;20080;-69
2024/01/29 07:11:54;;;;;;;9.47;5.33;;;;;;;-1.25;100.00;101270.13;5044761;28;20115;-70
2024/01/29 07:14:20;;;;;;;9.67;5.70;;;;;;;-1.35;100.00;101260.00;5045206;28;20383;-69
2024/01/29 07:16:46;;;;;;;10.70;6.10;;;;;;;-1.26;100.00;101267.56;5045663;28;20037;-71
2024/01/29 07:19:12;;;;;;;10.40;6.57;;;;;;;-1.25;100.00;101259.69;5044829;28;20318;-70
2024/01/29 07:21:41;;;;;;;11.17;6.93;;;;;;;-1.16;100.00;101256.81;5028714;28;20127;-71
2024/01/29 07:31:48;;;;;;;12.07;5.82;;;;;;;-1.11;100.00;101226.25;5054424;28;20064;-70
2024/01/29 07:34:14;;;;;;;10.37;6.20;;;;;;;-1.14;100.00;101234.19;5052689;28;20091;-72
2024/01/29 07:36:39;;;;;;;12.00;5.73;;;;;;;-1.05;100.00;101223.47;5019185;28;20052;-74
2024/01/29 07:39:05;;;;;;;11.20;5.97;;;;;;;-1.10;100.00;101225.34;5052672;28;20094;-72
2024/01/29 07:41:31;;;;;;;7.23;5.13;;;;;;;-0.96;100.00;101215.34;5053021;28;20064;-72
2024/01/29 07:43:57;;;;;;;10.27;5.90;;;;;;;-0.72;100.00;101214.56;5050564;28;20071;-71
2024/01/29 07:46:23;;;;;;;11.43;5.90;;;;;;;-0.70;100.00;101223.22;5050962;28;20102;-72
2024/01/29 07:48:49;;;;;;;11.73;6.33;;;;;;;-0.52;100.00;101216.53;5051886;28;20036;-72
2024/01/29 07:51:14;;;;;;;10.03;6.07;;;;;;;-0.66;100.00;101242.25;5019650;28;20083;-70
2024/01/29 07:53:40;;;;;;;9.60;5.87;;;;;;;-0.56;100.00;101254.94;5052388;28;20036;-71
2024/01/29 07:56:06;;;;;;;9.83;5.77;;;;;;;-0.60;100.00;101231.59;5042338;28;20432;-70
2024/01/29 07:58:32;;;;;;;13.63;6.67;;;;;;;-0.65;100.00;101238.72;5044283;28;20099;-70
2024/01/29 08:00:58;;;;;;;9.90;6.07;;;;;;;-0.73;100.00;101252.00;5040137;28;20052;-70
2024/01/29 08:03:23;;;;;;;11.30;5.93;;;;;;;-0.72;100.00;101247.63;5040669;28;20037;-71
2024/01/29 08:05:49;;;;;;;12.93;7.20;;;;;;;-0.79;100.00;101246.97;5042123;28;20087;-69
2024/01/29 08:08:15;;;;;;;12.03;6.70;;;;;;;-1.11;100.00;101238.44;5042106;28;20052;-70
2024/01/29 08:10:41;;;;;;;11.33;7.13;;;;;;;-1.20;100.00;101244.75;5048434;28;20463;-70
2024/01/29 08:13:06;;;;;;;12.13;7.00;;;;;;;-1.14;100.00;101238.53;5051364;28;20033;-71
2024/01/29 08:15:32;;;;;;;12.63;7.27;;;;;;;-1.11;100.00;101234.09;5052479;28;20037;-71
2024/01/29 08:17:58;;;;;;;12.07;7.07;;;;;;;-1.20;100.00;101239.53;5051470;28;20052;-69
2024/01/29 08:20:24;;;;;;;14.63;7.77;;;;;;;-1.25;100.00;101228.44;5051018;28;20037;-70
2024/01/29 08:22:51;;;;;;;17.47;8.17;;;;;;;-1.21;100.00;101216.13;5051010;28;20052;-69
2024/01/29 08:25:17;;;;;;;13.23;7.63;;;;;;;-1.27;100.00;101238.03;5051657;28;20045;-70
2024/01/29 08:27:44;;;;;;;10.93;6.73;;;;;;;-1.34;100.00;101218.28;5046470;28;20052;-71
2024/01/29 08:30:10;;;;;;;14.13;8.03;;;;;;;-1.30;100.00;101232.03;5039606;28;20048;-71
2024/01/29 08:32:36;;;;;;;12.93;7.27;;;;;;;-1.15;100.00;101232.44;5040366;28;20567;-70
2024/01/29 08:35:02;;;;;;;14.83;7.90;;;;;;;-1.13;100.00;101222.84;5019253;28;20037;-69
2024/01/29 08:37:29;;;;;;;10.83;6.80;;;;;;;-0.95;100.00;101221.41;5041560;28;20052;-69
2024/01/29 08:39:55;;;;;;;13.03;7.80;;;;;;;-0.93;100.00;101212.66;5042013;28;20041;-70
2024/01/29 08:42:21;;;;;;;21.27;8.70;;;;;;;-1.01;100.00;101217.25;5030635;28;20040;-69
2024/01/29 08:44:47;;;;;;;11.23;6.87;;;;;;;-1.04;100.00;101204.31;5041852;28;20379;-70
2024/01/29 08:47:13;;;;;;;12.03;7.40;;;;;;;-1.04;100.00;101214.72;5039736;28;20106;-69
2024/01/29 08:49:38;;;;;;;13.20;7.17;;;;;;;-1.02;100.00;101214.69;5014176;28;20071;-69
2024/01/29 08:52:05;;;;;;;14.13;7.43;;;;;;;-1.27;100.00;101237.16;5014654;28;20045;-73
2024/01/29 08:54:31;;;;;;;13.97;7.63;;;;;;;-1.20;100.00;101223.06;5030917;28;20490;-71
2024/01/29 08:56:57;;;;;;;13.77;7.97;;;;;;;-1.21;100.00;101216.13;5030556;28;20048;-69
2024/01/29 08:59:23;;;;;;;14.40;7.27;;;;;;;-1.12;100.00;101219.31;5044369;28;20502;-71
2024/01/29 09:01:48;;;;;;;15.23;8.73;;;;;;;-1.16;100.00;101219.47;5034683;28;20431;-69
2024/01/29 09:04:14;;;;;;;15.17;8.30;;;;;;;-1.09;100.00;101216.63;5051912;28;20045;-71
2024/01/29 09:06:40;;;;;;;16.23;8.90;;;;;;;-1.06;100.00;101220.91;5051519;28;20824;-70
2024/01/29 09:09:07;;;;;;;14.30;7.97;;;;;;;-1.19;100.00;101215.22;5051298;28;20057;-72
2024/01/29 09:11:32;;;;;;;16.60;8.70;;;;;;;-1.14;100.00;101202.91;5051555;28;20040;-71
2024/01/29 09:13:58;;;;;;;13.37;7.70;;;;;;;-1.01;100.00;101205.94;5051576;28;20118;-72
2024/01/29 09:16:24;;;;;;;12.47;7.17;;;;;;;-1.02;100.00;101196.44;5034412;28;20426;-70
2024/01/29 09:18:49;;;;;;;12.30;7.33;;;;;;;-1.08;100.00;101197.50;5034712;28;20106;-69
2024/01/29 09:21:15;;;;;;;12.00;7.23;;;;;;;-1.11;100.00;101200.19;5050365;28;20067;-71
2024/01/29 09:23:41;;;;;;;11.43;7.50;;;;;;;-1.08;100.00;101192.28;5034307;28;20049;-72
2024/01/29 09:26:07;;;;;;;12.93;6.97;;;;;;;-1.17;100.00;101195.13;5050955;28;20067;-73
2024/01/29 09:28:34;;;;;;;10.97;6.53;;;;;;;-1.08;100.00;101197.50;5018602;28;20479;-72
2024/01/29 09:31:02;;;;;;;10.30;6.37;;;;;;;-1.10;100.00;101207.09;5031971;28;20045;-72
2024/01/29 09:33:27;;;;;;;10.30;6.57;;;;;;;-1.16;100.00;101189.03;5027504;28;20041;-70
2024/01/29 09:35:53;;;;;;;10.50;6.40;;;;;;;-1.07;100.00;101182.69;5042773;28;20532;-69
2024/01/29 09:38:20;;;;;;;11.30;6.30;;;;;;;-1.07;100.00;101178.31;5041755;28;20040;-74
2024/01/29 09:40:46;;;;;;;10.87;6.30;;;;;;;-1.15;100.00;101176.88;5026481;28;20037;-71
2024/01/29 09:43:12;;;;;;;11.50;7.17;;;;;;;-1.05;100.00;101180.88;5041089;28;20052;-71
2024/01/29 09:45:40;;;;;;;9.40;5.90;;;;;;;-1.01;100.00;101159.88;5024624;28;20498;-75
2024/01/29 09:48:08;;;;;;;10.33;6.13;;;;;;;-0.88;100.00;101169.03;5040089;28;20048;-73
2024/01/29 09:50:34;;;;;;;8.93;5.40;;;;;;;-0.96;100.00;101184.06;5042280;28;20375;-73
2024/01/29 09:53:01;;;;;;;8.83;5.97;;;;;;;-1.00;100.00;101166.78;5022250;28;20083;-74
2024/01/29 09:55:27;;;;;;;9.33;5.93;;;;;;;-1.15;100.00;101176.88;5030972;28;20037;-73
2024/01/29 09:57:53;;;;;;;9.50;5.60;;;;;;;-1.08;100.00;101171.41;5032042;28;20095;-67
2024/01/29 10:00:19;;;;;;;10.50;6.00;;;;;;;-1.26;100.00;101177.19;5051661;28;20077;-70
2024/01/29 10:02:45;;;;;;;10.17;6.23;;;;;;;-1.25;100.00;101168.47;5050580;28;20060;-71
2024/01/29 10:05:11;;;;;;;9.00;5.93;;;;;;;-1.18;100.00;101163.91;5017555;28;20037;-72
2024/01/29 10:07:41;;;;;;;11.87;6.23;;;;;;;-1.12;100.00;101158.53;5050844;28;20049;-72
2024/01/29 10:10:08;;;;;;;10.25;6.10;;;;;;;-1.07;100.00;101156.59;5030423;28;20111;-70
2024/01/29 10:12:34;;;;;;;8.80;5.30;;;;;;;-1.14;100.00;101150.75;5033612;28;20481;-72
2024/01/29 10:15:00;;;;;;;9.67;5.90;;;;;;;-1.16;100.00;101160.38;5033747;28;20033;-71
2024/01/29 10:17:32;;;;;;;8.23;5.27;;;;;;;-1.30;100.00;101154.72;5039837;28;20040;-72
2024/01/29 10:19:58;;;;;;;8.43;5.33;;;;;;;-1.50;100.00;101146.66;5033338;28;20041;-72
2024/01/29 10:22:25;;;;;;;9.53;5.47;;;;;;;-1.42;100.00;101155.09;5018283;28;20040;-67
2024/01/29 10:25:04;;;;;;;9.43;5.53;;;;;;;-1.21;100.00;101162.25;5012679;28;20099;-72
2024/01/29 10:27:31;;;;;;;9.20;5.50;;;;;;;-1.51;100.00;101141.50;5023254;28;20518;-72
2024/01/29 10:29:59;;;;;;;8.33;5.80;;;;;;;-1.43;100.00;101142.97;5039480;28;20076;-74
2024/01/29 10:32:25;;;;;;;9.50;5.67;;;;;;;-1.43;100.00;101155.16;5016531;28;20130;-69
2024/01/29 10:34:50;;;;;;;9.43;5.30;;;;;;;-1.29;100.00;101134.75;5042697;28;20515;-71
2024/01/29 10:37:16;;;;;;;8.20;5.47;;;;;;;-1.22;100.00;101137.09;5044587;28;20033;-66
2024/01/29 10:39:42;;;;;;;10.83;5.67;;;;;;;-1.31;100.00;101165.19;5043894;28;20073;-69
2024/01/29 10:42:09;;;;;;;9.53;5.90;;;;;;;-1.11;100.00;101142.84;5041866;28;20083;-68
2024/01/29 10:44:38;;;;;;;10.03;5.80;;;;;;;-0.91;100.00;101136.97;5029987;28;20128;-73
2024/01/29 10:47:09;;;;;;;8.23;5.87;;;;;;;-0.93;100.00;101142.25;5029139;28;20044;-70
2024/01/29 10:49:36;;;;;;;10.63;5.80;;;;;;;-0.94;100.00;101137.06;5042255;28;20049;-69
2024/01/29 10:52:03;;;;;;;10.20;6.20;;;;;;;-1.02;100.00;101139.94;5013775;28;20060;-69
2024/01/29 10:54:32;;;;;;;8.47;5.47;;;;;;;-1.19;100.00;101113.53;5042211;28;20545;-69
2024/01/29 10:56:58;;;;;;;8.03;5.63;;;;;;;-1.25;100.00;101121.56;5012338;28;20142;-69
2024/01/29 10:59:24;;;;;;;9.83;5.67;;;;;;;-1.43;100.00;101116.91;4994711;28;20084;-70
2024/01/29 11:01:52;;;;;;;9.60;5.93;;;;;;;-1.39;100.00;101108.09;5027675;28;20114;-69
2024/01/29 11:04:19;;;;;;;10.73;5.73;;;;;;;-1.40;100.00;101111.63;5041891;28;20049;-70
2024/01/29 11:06:54;;;;;;;11.67;6.80;;;;;;;-1.35;100.00;101122.72;5014032;28;20069;-69
2024/01/29 11:09:22;;;;;;;12.07;6.70;;;;;;;-1.55;100.00;101126.88;4990362;28;20602;-70
2024/01/29 11:11:51;;;;;;;11.73;6.27;;;;;;;-1.38;100.00;101107.19;5039956;28;20051;-72
2024/01/29 11:14:21;;;;;;;11.63;6.77;;;;;;;-1.38;100.00;101109.81;5023315;28;20135;-71
2024/01/29 11:16:49;;;;;;;12.70;6.60;;;;;;;-1.25;100.00;101111.13;5026022;28;20053;-71
2024/01/29 11:19:16;;;;;;;10.33;6.40;;;;;;;-1.38;100.00;101115.00;5023072;28;20501;-70